createdAt,value
2022-11-22T00:00:01.556Z,6.70
2022-11-22T00:02:32.338Z,6.80
2022-11-22T00:05:07.345Z,6.70
2022-11-22T00:07:36.054Z,6.70
2022-11-22T00:13:51.001Z,6.80
2022-11-22T00:16:33.677Z,6.80
2022-11-22T00:19:08.856Z,6.80
2022-11-22T00:22:06.273Z,6.80
2022-11-22T00:24:31.645Z,6.80
2022-11-22T00:27:01.887Z,6.70
2022-11-22T00:29:39.277Z,6.80
2022-11-22T00:32:18.402Z,6.80
2022-11-22T00:35:06.769Z,6.80
2022-11-22T00:37:42.519Z,6.70
2022-11-22T00:40:13.326Z,6.80
2022-11-22T00:42:49.337Z,6.80
2022-11-22T00:45:29.548Z,6.70
2022-11-22T00:48:06.569Z,6.70
2022-11-22T00:50:40.344Z,6.70
2022-11-22T00:53:07.621Z,6.70
2022-11-22T00:55:48.933Z,6.70
2022-11-22T00:58:33.730Z,6.70
2022-11-22T01:01:01.360Z,6.70
2022-11-22T01:03:49.878Z,6.70
2022-11-22T01:06:17.816Z,6.60
2022-11-22T01:08:59.030Z,6.70
2022-11-22T01:11:50.885Z,6.70
2022-11-22T01:14:27.203Z,6.60
2022-11-22T01:17:01.008Z,6.60
2022-11-22T01:19:31.701Z,6.60
2022-11-22T01:22:16.597Z,6.70
2022-11-22T01:24:50.160Z,6.60
2022-11-22T01:27:24.669Z,6.70
2022-11-22T01:29:56.692Z,6.70
2022-11-22T01:32:27.901Z,6.70
2022-11-22T01:34:59.120Z,6.80
2022-11-22T01:37:26.451Z,6.80
2022-11-22T01:40:10.510Z,6.90
2022-11-22T01:42:53.857Z,6.90
2022-11-22T01:45:39.290Z,6.90
2022-11-22T01:48:23.421Z,7.00
2022-11-22T01:50:56.443Z,7.00
2022-11-22T01:53:39.307Z,7.00
2022-11-22T01:56:14.049Z,7.00
2022-11-22T01:58:52.695Z,7.10
2022-11-22T02:01:22.531Z,7.10
2022-11-22T02:03:53.406Z,7.10
2022-11-22T02:06:22.076Z,7.10
2022-11-22T02:09:02.304Z,7.10
2022-11-22T02:11:34.338Z,7.10
2022-11-22T02:14:11.760Z,7.10
2022-11-22T02:16:42.068Z,7.10
2022-11-22T02:19:34.322Z,7.10
2022-11-22T02:22:22.195Z,7.20
2022-11-22T02:25:05.184Z,7.10
2022-11-22T02:27:36.909Z,7.10
2022-11-22T02:30:05.561Z,7.10
2022-11-22T02:32:59.450Z,7.20
2022-11-22T02:35:41.450Z,7.20
2022-11-22T02:38:19.280Z,7.20
2022-11-22T02:41:13.516Z,7.20
2022-11-22T02:43:47.791Z,7.20
2022-11-22T02:46:21.863Z,7.20
2022-11-22T02:48:52.600Z,7.20
2022-11-22T02:51:20.252Z,7.20
2022-11-22T02:53:57.022Z,7.30
2022-11-22T02:56:30.110Z,7.30
2022-11-22T02:58:57.585Z,7.30
2022-11-22T03:01:36.206Z,7.30
2022-11-22T03:04:04.484Z,7.30
2022-11-22T03:06:31.619Z,7.40
2022-11-22T03:09:09.442Z,7.30
2022-11-22T03:11:45.385Z,7.30
2022-11-22T03:14:18.379Z,7.30
2022-11-22T03:16:51.764Z,7.30
2022-11-22T03:19:20.388Z,7.30
2022-11-22T03:22:02.422Z,7.30
2022-11-22T03:24:44.742Z,7.30
2022-11-22T03:27:19.078Z,7.30
2022-11-22T03:29:52.278Z,7.30
2022-11-22T03:32:25.995Z,7.30
2022-11-22T03:39:23.534Z,7.30
2022-11-22T03:42:37.361Z,7.30
2022-11-22T03:45:33.535Z,7.30
2022-11-22T03:48:38.643Z,7.30
2022-11-22T03:51:08.141Z,7.30
2022-11-22T03:53:35.081Z,7.30
2022-11-22T03:56:05.591Z,7.20
2022-11-22T03:58:32.792Z,7.30
2022-11-22T04:01:12.079Z,7.20
2022-11-22T04:03:43.216Z,7.20
2022-11-22T04:06:10.099Z,7.30
2022-11-22T04:08:37.271Z,7.30
2022-11-22T04:11:04.273Z,7.20
2022-11-22T04:13:50.005Z,7.20
2022-11-22T04:16:20.046Z,7.20
2022-11-22T04:22:27.974Z,7.20
2022-11-22T04:29:14.410Z,7.20
2022-11-22T04:32:00.043Z,7.20
2022-11-22T04:34:27.268Z,7.20
2022-11-22T04:36:54.222Z,7.20
2022-11-22T04:39:21.645Z,7.20
2022-11-22T04:42:22.084Z,7.20
2022-11-22T04:44:49.046Z,7.20
2022-11-22T04:47:35.115Z,7.10
2022-11-22T04:50:02.612Z,7.20
2022-11-22T04:52:47.868Z,7.20
2022-11-22T04:55:22.339Z,7.20
2022-11-22T04:57:52.011Z,7.20
2022-11-22T05:00:29.043Z,7.10
2022-11-22T05:02:56.700Z,7.20
2022-11-22T05:05:24.211Z,7.10
2022-11-22T05:07:51.243Z,7.10
2022-11-22T05:10:24.525Z,7.10
2022-11-22T05:12:53.261Z,7.10
2022-11-22T05:15:23.257Z,7.10
2022-11-22T05:17:50.194Z,7.10
2022-11-22T05:20:27.710Z,7.20
2022-11-22T05:23:14.316Z,7.20
2022-11-22T05:29:30.752Z,7.20
2022-11-22T05:32:01.981Z,7.20
2022-11-22T05:34:32.002Z,7.20
2022-11-22T05:37:02.327Z,7.20
2022-11-22T05:39:29.583Z,7.20
2022-11-22T05:42:06.037Z,7.20
2022-11-22T05:44:33.074Z,7.20
2022-11-22T05:47:00.689Z,7.20
2022-11-22T05:49:27.737Z,7.20
2022-11-22T05:51:54.708Z,7.10
2022-11-22T05:54:21.664Z,7.20
2022-11-22T05:56:48.824Z,7.20
2022-11-22T05:59:15.768Z,7.20
2022-11-22T06:01:42.742Z,7.20
2022-11-22T06:04:09.739Z,7.20
2022-11-22T06:06:36.865Z,7.10
2022-11-22T06:09:05.006Z,7.10
2022-11-22T06:11:39.534Z,7.10
2022-11-22T06:14:17.186Z,7.10
2022-11-22T06:16:44.091Z,7.10
2022-11-22T06:19:11.065Z,7.10
2022-11-22T06:21:37.980Z,7.00
2022-11-22T06:24:08.200Z,7.00
2022-11-22T06:27:12.877Z,7.00
2022-11-22T06:33:30.380Z,7.00
2022-11-22T06:36:25.937Z,7.00
2022-11-22T06:38:53.113Z,7.00
2022-11-22T06:41:22.285Z,7.00
2022-11-22T06:43:50.233Z,7.00
2022-11-22T06:46:21.289Z,7.00
2022-11-22T06:48:48.343Z,7.00
2022-11-22T06:51:33.741Z,7.00
2022-11-22T06:57:41.673Z,7.00
2022-11-22T07:00:25.000Z,7.00
2022-11-22T07:06:53.554Z,7.00
2022-11-22T07:09:20.498Z,7.00
2022-11-22T07:33:16.046Z,6.90
2022-11-22T07:36:11.778Z,6.90
2022-11-22T07:42:52.021Z,6.80
2022-11-22T07:48:03.304Z,6.80
2022-11-22T07:50:30.403Z,6.80
2022-11-22T07:53:00.240Z,6.70
2022-11-22T07:55:27.488Z,6.80
2022-11-22T07:58:17.565Z,6.70
2022-11-22T08:04:36.133Z,6.80
2022-11-22T08:07:52.779Z,6.70
2022-11-22T08:11:17.945Z,6.70
2022-11-22T08:14:05.728Z,6.80
2022-11-22T08:16:59.620Z,6.70
2022-11-22T08:20:18.050Z,6.80
2022-11-22T08:26:55.763Z,6.80
2022-11-22T08:29:31.852Z,6.80
2022-11-22T08:32:27.926Z,6.90
2022-11-22T08:34:57.511Z,6.90
2022-11-22T08:37:37.734Z,7.00
2022-11-22T08:40:05.481Z,7.00
2022-11-22T08:42:46.121Z,7.00
2022-11-22T08:45:13.124Z,7.10
2022-11-22T08:47:40.098Z,7.10
2022-11-22T08:50:07.557Z,7.10
2022-11-22T08:52:42.562Z,7.20
2022-11-22T08:55:09.743Z,7.30
2022-11-22T08:57:36.720Z,7.30
2022-11-22T09:00:05.362Z,7.40
2022-11-22T09:02:32.326Z,7.40
2022-11-22T09:05:19.763Z,7.50
2022-11-22T09:10:53.044Z,7.60
2022-11-22T09:13:23.382Z,7.70
2022-11-22T09:15:57.549Z,7.80
2022-11-22T09:18:36.826Z,7.80
2022-11-22T09:21:20.789Z,7.80
2022-11-22T09:24:09.206Z,7.90
2022-11-22T09:27:22.846Z,7.90
2022-11-22T09:33:39.680Z,7.90
2022-11-22T09:36:31.940Z,7.90
2022-11-22T09:39:01.236Z,7.90
2022-11-22T09:41:48.436Z,8.00
2022-11-22T09:44:56.690Z,7.90
2022-11-22T09:47:59.328Z,8.00
2022-11-22T09:50:40.045Z,8.00
2022-11-22T09:53:09.949Z,8.00
2022-11-22T09:55:49.058Z,8.10
2022-11-22T09:58:34.189Z,8.10
2022-11-22T10:01:20.246Z,8.10
2022-11-22T10:04:03.853Z,8.10
2022-11-22T10:06:42.380Z,8.10
2022-11-22T10:09:37.067Z,8.20
2022-11-22T10:12:45.592Z,8.20
2022-11-22T10:15:31.223Z,8.30
2022-11-22T10:18:46.613Z,8.30
2022-11-22T10:21:14.467Z,8.30
2022-11-22T10:23:42.077Z,8.30
2022-11-22T10:26:15.253Z,8.30
2022-11-22T10:29:01.623Z,8.40
2022-11-22T10:31:40.905Z,8.40
2022-11-22T10:34:44.998Z,8.40
2022-11-22T10:37:15.045Z,8.40
2022-11-22T10:40:23.606Z,8.50
2022-11-22T10:43:13.328Z,8.50
2022-11-22T10:46:16.204Z,8.50
2022-11-22T10:49:07.961Z,8.50
2022-11-22T10:52:15.258Z,8.60
2022-11-22T10:55:00.531Z,8.60
2022-11-22T10:57:41.628Z,8.70
2022-11-22T11:00:31.013Z,8.70
2022-11-22T11:03:27.964Z,8.70
2022-11-22T11:13:03.240Z,9.00
2022-11-22T11:15:52.738Z,9.20
2022-11-22T11:18:37.717Z,9.30
2022-11-22T11:21:08.661Z,9.40
2022-11-22T11:23:35.662Z,9.50
2022-11-22T11:26:30.689Z,9.70
2022-11-22T11:29:18.875Z,9.80
2022-11-22T11:31:50.030Z,9.80
2022-11-22T11:34:28.205Z,9.90
2022-11-22T11:36:57.457Z,9.90
2022-11-22T11:39:31.611Z,10.00
2022-11-22T11:41:59.239Z,10.00
2022-11-22T11:44:34.691Z,10.10
2022-11-22T11:47:02.246Z,10.10
2022-11-22T11:49:34.058Z,10.10
2022-11-22T11:52:05.297Z,10.20
2022-11-22T11:54:52.514Z,10.20
2022-11-22T11:57:45.714Z,10.20
2022-11-22T12:00:38.514Z,10.20
2022-11-22T12:03:06.888Z,10.20
2022-11-22T12:05:34.022Z,10.20
2022-11-22T12:08:01.289Z,10.30
2022-11-22T12:10:45.559Z,10.30
2022-11-22T12:13:30.364Z,10.50
2022-11-22T12:16:01.836Z,10.60
2022-11-22T12:18:58.233Z,10.70
2022-11-22T12:21:56.434Z,10.90
2022-11-22T12:25:02.826Z,10.90
2022-11-22T12:27:29.499Z,11.00
2022-11-22T12:29:57.455Z,11.00
2022-11-22T12:32:46.894Z,11.00
2022-11-22T12:35:23.224Z,11.00
2022-11-22T12:37:57.476Z,11.00
2022-11-22T12:40:32.251Z,10.90
2022-11-22T12:43:01.187Z,10.80
2022-11-22T12:45:55.165Z,10.70
2022-11-22T12:48:37.214Z,10.60
2022-11-22T12:51:07.901Z,10.60
2022-11-22T12:53:36.618Z,10.50
2022-11-22T12:56:26.163Z,10.50
2022-11-22T12:58:58.034Z,10.50
2022-11-22T13:01:35.162Z,10.50
2022-11-22T13:04:09.973Z,10.50
2022-11-22T13:06:52.169Z,10.40
2022-11-22T13:09:30.766Z,10.40
2022-11-22T13:12:12.590Z,10.40
2022-11-22T13:14:43.420Z,10.30
2022-11-22T13:17:11.686Z,10.30
2022-11-22T13:19:52.104Z,10.20
2022-11-22T13:22:43.498Z,10.20
2022-11-22T13:25:28.942Z,10.20
2022-11-22T13:27:59.004Z,10.20
2022-11-22T13:30:32.681Z,10.10
2022-11-22T13:33:10.595Z,10.10
2022-11-22T13:35:37.898Z,10.10
2022-11-22T13:38:16.827Z,10.10
2022-11-22T13:41:22.607Z,10.10
2022-11-22T13:43:54.635Z,10.10
2022-11-22T13:46:49.745Z,10.20
2022-11-22T13:52:54.935Z,10.30
2022-11-22T13:58:55.078Z,10.40
2022-11-22T14:05:42.841Z,10.50
2022-11-22T14:08:36.485Z,10.50
2022-11-22T14:11:29.171Z,10.50
2022-11-22T14:14:23.605Z,10.50
2022-11-22T14:17:46.561Z,10.40
2022-11-22T14:20:55.867Z,10.40
2022-11-22T14:23:46.427Z,10.40
2022-11-22T14:27:45.879Z,10.40
2022-11-22T14:30:31.551Z,10.30
2022-11-22T14:36:34.888Z,10.30
2022-11-22T14:43:58.541Z,10.10
2022-11-22T14:47:02.889Z,10.10
2022-11-22T14:50:33.233Z,10.00
2022-11-22T14:53:07.586Z,10.00
2022-11-22T14:55:36.974Z,10.00
2022-11-22T14:58:08.495Z,9.90
2022-11-22T15:01:15.204Z,9.90
2022-11-22T15:03:42.064Z,9.80
2022-11-22T15:09:19.461Z,9.80
2022-11-22T15:09:50.853Z,9.80
2022-11-22T15:12:47.507Z,9.80
2022-11-22T15:59:25.765Z,9.00
2022-11-22T16:01:59.893Z,9.00
2022-11-22T16:04:36.300Z,9.00
2022-11-22T16:07:15.337Z,8.90
2022-11-22T16:09:44.793Z,8.90
2022-11-22T16:13:09.223Z,8.90
2022-11-22T16:19:57.574Z,8.90
2022-11-22T16:22:41.110Z,8.90
2022-11-22T16:25:29.691Z,9.00
2022-11-22T16:27:56.945Z,9.00
2022-11-22T16:30:24.020Z,9.00
2022-11-22T16:32:56.032Z,9.00
2022-11-22T16:35:29.471Z,8.90
2022-11-22T16:37:57.555Z,8.90
2022-11-22T16:40:30.537Z,8.90
2022-11-22T16:43:03.186Z,8.80
2022-11-22T16:45:42.785Z,8.80
2022-11-22T16:48:55.319Z,8.70
2022-11-22T16:57:49.615Z,8.40
2022-11-22T17:00:17.931Z,8.40
2022-11-22T17:02:55.169Z,8.40
2022-11-22T17:05:22.381Z,8.30
2022-11-22T17:07:49.816Z,8.30
2022-11-22T17:10:17.263Z,8.20
2022-11-22T17:12:44.423Z,8.10
2022-11-22T17:15:15.726Z,8.10
2022-11-22T17:17:42.953Z,8.00
2022-11-22T17:20:14.734Z,8.00
2022-11-22T17:22:43.235Z,7.90
2022-11-22T17:25:12.328Z,7.90
2022-11-22T17:27:40.733Z,7.80
2022-11-22T17:30:08.452Z,7.80
2022-11-22T17:32:37.296Z,7.80
2022-11-22T17:35:04.577Z,7.80
2022-11-22T17:37:31.603Z,7.70
2022-11-22T17:39:58.650Z,7.70
2022-11-22T17:42:28.158Z,7.70
2022-11-22T17:44:55.148Z,7.60
2022-11-22T17:47:22.135Z,7.70
2022-11-22T17:49:50.897Z,7.60
2022-11-22T17:52:18.082Z,7.60
2022-11-22T17:54:45.252Z,7.60
2022-11-22T17:57:12.287Z,7.60
2022-11-22T17:59:45.536Z,7.60
2022-11-22T18:02:14.978Z,7.50
2022-11-22T18:04:44.570Z,7.50
2022-11-22T18:07:11.943Z,7.50
2022-11-22T18:09:38.997Z,7.50
2022-11-22T18:12:06.232Z,7.50
2022-11-22T18:14:34.702Z,7.50
2022-11-22T18:17:01.719Z,7.40
2022-11-22T18:19:28.983Z,7.40
2022-11-22T18:21:56.225Z,7.40
2022-11-22T18:24:23.196Z,7.40
2022-11-22T18:26:50.430Z,7.40
2022-11-22T18:32:05.527Z,7.30
2022-11-22T18:34:32.466Z,7.30
2022-11-22T18:37:04.163Z,7.30
2022-11-22T18:39:36.056Z,7.30
2022-11-22T18:42:04.502Z,7.30
2022-11-22T18:44:31.458Z,7.30
2022-11-22T18:46:58.397Z,7.30
2022-11-22T18:49:25.784Z,7.30
2022-11-22T18:51:52.862Z,7.30
2022-11-22T18:54:21.956Z,7.30
2022-11-22T18:56:49.682Z,7.30
2022-11-22T18:59:16.763Z,7.40
2022-11-22T19:01:43.802Z,7.40
2022-11-22T19:04:13.860Z,7.40
2022-11-22T19:06:42.019Z,7.40
2022-11-22T19:09:09.150Z,7.50
2022-11-22T19:11:36.052Z,7.50
2022-11-22T19:14:03.263Z,7.60
2022-11-22T19:16:30.728Z,7.50
2022-11-22T19:18:58.526Z,7.50
2022-11-22T19:21:26.960Z,7.50
2022-11-22T19:23:54.334Z,7.50
2022-11-22T19:26:23.106Z,7.50
2022-11-22T19:28:55.976Z,7.50
2022-11-22T19:31:31.633Z,7.40
2022-11-22T19:33:59.286Z,7.40
2022-11-22T19:36:32.833Z,7.40
2022-11-22T19:39:00.674Z,7.30
2022-11-22T19:41:27.528Z,7.30
2022-11-22T19:43:55.768Z,7.20
2022-11-22T19:46:22.733Z,7.10
2022-11-22T19:48:57.203Z,7.10
2022-11-22T19:51:24.267Z,7.00
2022-11-22T19:54:00.375Z,7.00
2022-11-22T19:56:30.366Z,6.90
2022-11-22T19:58:58.076Z,6.90
2022-11-22T20:01:25.787Z,6.80
2022-11-22T20:04:00.673Z,6.80
2022-11-22T20:06:28.027Z,6.80
2022-11-22T20:09:00.955Z,6.70
2022-11-22T20:11:27.796Z,6.70
2022-11-22T20:13:54.844Z,6.60
2022-11-22T20:16:26.088Z,6.60
2022-11-22T20:18:53.964Z,6.60
2022-11-22T20:21:22.523Z,6.50
2022-11-22T20:23:50.607Z,6.50
2022-11-22T20:26:18.312Z,6.50
2022-11-22T20:28:45.465Z,6.50
2022-11-22T20:31:13.312Z,6.40
2022-11-22T20:33:41.868Z,6.40
2022-11-22T20:36:10.612Z,6.40
2022-11-22T20:38:38.369Z,6.40
2022-11-22T20:41:06.426Z,6.40
2022-11-22T20:43:33.857Z,6.40
2022-11-22T20:46:08.541Z,6.30
2022-11-22T20:48:35.954Z,6.40
2022-11-22T20:51:05.540Z,6.30
2022-11-22T20:53:32.682Z,6.30
2022-11-22T20:55:59.760Z,6.30
2022-11-22T20:58:27.037Z,6.30
2022-11-22T21:00:54.784Z,6.30
2022-11-22T21:03:21.921Z,6.30
2022-11-22T21:05:53.581Z,6.30
2022-11-22T21:08:21.083Z,6.30
2022-11-22T21:10:48.149Z,6.20
2022-11-22T21:13:15.198Z,6.30
2022-11-22T21:15:42.194Z,6.20
2022-11-22T21:18:24.769Z,6.20
2022-11-22T21:20:52.854Z,6.20
2022-11-22T21:23:19.985Z,6.20
2022-11-22T21:25:47.145Z,6.20
2022-11-22T21:28:17.007Z,6.10
2022-11-22T21:30:43.956Z,6.10
2022-11-22T21:33:11.081Z,6.10
2022-11-22T21:35:38.094Z,6.10
2022-11-22T21:38:05.402Z,6.00
2022-11-22T21:40:32.392Z,6.00
2022-11-22T21:42:59.530Z,6.00
2022-11-22T21:45:29.729Z,6.00
2022-11-22T21:47:56.734Z,6.00
2022-11-22T21:50:23.941Z,5.90
2022-11-22T21:52:50.886Z,5.90
2022-11-22T21:55:18.048Z,5.90
2022-11-22T21:57:44.996Z,5.90
2022-11-22T22:00:13.054Z,5.80
2022-11-22T22:02:39.975Z,5.80
2022-11-22T22:05:07.143Z,5.80
2022-11-22T22:07:52.244Z,5.70
2022-11-22T22:13:47.707Z,5.60
2022-11-22T22:16:23.770Z,5.70
2022-11-22T22:32:25.499Z,5.60
2022-11-22T22:42:33.901Z,5.60
2022-11-22T22:53:03.447Z,5.50
2022-11-22T22:59:46.664Z,5.40
2022-11-22T23:06:33.228Z,5.40
2022-11-22T23:25:06.185Z,5.20
2022-11-22T23:27:33.139Z,5.20
2022-11-22T23:30:00.255Z,5.20
2022-11-22T23:32:30.690Z,5.10
2022-11-22T23:34:57.815Z,5.10
2022-11-22T23:37:24.863Z,5.10
2022-11-22T23:39:51.780Z,5.10
2022-11-22T23:42:18.666Z,5.10
2022-11-22T23:44:45.573Z,5.10
2022-11-22T23:47:12.423Z,5.10
2022-11-22T23:49:39.299Z,5.00
2022-11-22T23:52:06.122Z,5.00
2022-11-22T23:54:33.041Z,5.10
2022-11-22T23:56:59.917Z,5.00
2022-11-22T23:59:26.927Z,5.00
